Time;durP1;ratioP1;P1;durP2;ratioP2;P2;SDS_P1;SDS_P2;PMS_P1;PMS_P2;Temp;Humidity;BMP_temperature;BMP_pressure;BME280_temperature;BME280_humidity;BME280_pressure;Samples;Min_cycle;Max_cycle;Signal;HPM_P1;HPM_P2
2023/06/24 00:02:23;;;;;;;24.45;16.35;;;17.60;99.90;;;;;;5034557;28;20022;-53
2023/06/24 00:05:09;;;;;;;23.83;17.00;;;17.60;99.90;;;;;;5017054;28;20042;-54
2023/06/24 00:07:56;;;;;;;23.40;16.65;;;17.50;99.90;;;;;;5014035;28;20056;-52
2023/06/24 00:10:43;;;;;;;30.30;17.50;;;17.50;99.90;;;;;;5015058;28;20113;-51
2023/06/24 00:13:29;;;;;;;21.95;15.50;;;17.50;99.90;;;;;;5016304;28;20084;-53
2023/06/24 00:16:15;;;;;;;26.42;17.58;;;17.50;99.90;;;;;;5015684;28;20036;-51
2023/06/24 00:19:01;;;;;;;24.65;16.90;;;17.50;99.90;;;;;;5016505;28;20498;-54
2023/06/24 00:21:50;;;;;;;21.40;17.05;;;17.50;99.90;;;;;;5015017;28;20494;-55
2023/06/24 00:24:36;;;;;;;20.95;16.55;;;17.40;99.90;;;;;;5015158;28;20029;-54
2023/06/24 00:27:22;;;;;;;18.27;15.45;;;17.50;99.90;;;;;;5014733;28;20026;-52
2023/06/24 00:30:09;;;;;;;26.55;18.58;;;17.50;99.90;;;;;;5016597;28;20034;-54
2023/06/24 00:32:55;;;;;;;25.67;17.25;;;17.50;99.90;;;;;;5036290;28;20030;-56
2023/06/24 00:35:42;;;;;;;24.27;17.92;;;17.50;99.90;;;;;;5043594;28;20080;-56
2023/06/24 00:38:32;;;;;;;22.48;17.42;;;17.50;99.90;;;;;;5036466;28;20402;-53
2023/06/24 00:41:18;;;;;;;26.40;18.58;;;17.50;99.90;;;;;;5035616;28;20021;-53
2023/06/24 00:44:04;;;;;;;21.45;17.98;;;17.50;99.90;;;;;;5033734;28;20037;-54
2023/06/24 00:46:50;;;;;;;20.08;17.98;;;17.50;99.90;;;;;;5015234;28;20405;-55
2023/06/24 00:49:36;;;;;;;30.00;16.88;;;17.60;99.90;;;;;;5015431;28;20022;-51
2023/06/24 00:52:22;;;;;;;24.88;17.40;;;17.50;99.90;;;;;;5015126;28;20116;-53
2023/06/24 00:55:12;;;;;;;24.90;16.55;;;17.50;99.90;;;;;;5015086;28;20034;-54
2023/06/24 00:58:01;;;;;;;18.63;15.23;;;17.50;99.90;;;;;;5014984;28;20030;-54
2023/06/24 01:00:56;;;;;;;24.85;17.33;;;17.50;99.90;;;;;;5035385;28;20175;-51
2023/06/24 01:03:42;;;;;;;19.77;15.50;;;17.50;99.90;;;;;;5034920;28;20029;-51
2023/06/24 01:06:29;;;;;;;22.08;14.85;;;17.50;99.90;;;;;;5031865;28;20465;-55
2023/06/24 01:09:15;;;;;;;20.08;16.15;;;17.50;99.90;;;;;;5034175;28;20053;-53
2023/06/24 01:12:02;;;;;;;18.40;15.32;;;17.40;99.90;;;;;;5034471;28;20025;-54
2023/06/24 01:14:48;;;;;;;27.20;16.40;;;17.50;99.90;;;;;;5034549;28;20054;-53
2023/06/24 01:17:44;;;;;;;20.45;14.50;;;17.50;99.90;;;;;;5033325;28;20573;-53
2023/06/24 01:21:02;;;;;;;18.05;14.40;;;17.50;99.90;;;;;;5033620;28;20124;-53
2023/06/24 01:24:06;;;;;;;19.48;15.23;;;17.40;99.90;;;;;;5018874;28;20061;-52
2023/06/24 01:27:07;;;;;;;20.50;15.02;;;17.30;99.90;;;;;;5027717;28;20029;-55
2023/06/24 01:30:03;;;;;;;20.45;15.18;;;17.30;99.90;;;;;;5032400;28;20071;-55
2023/06/24 01:33:13;;;;;;;21.15;15.40;;;17.30;99.90;;;;;;5034966;28;20022;-55
2023/06/24 01:36:01;;;;;;;21.25;15.00;;;17.20;99.90;;;;;;5036923;28;20044;-56
2023/06/24 01:38:52;;;;;;;23.27;16.08;;;17.30;99.90;;;;;;5037967;28;20045;-55
2023/06/24 01:41:49;;;;;;;25.98;15.43;;;17.40;99.90;;;;;;5041254;28;20045;-51
2023/06/24 01:44:37;;;;;;;21.15;16.40;;;17.30;99.90;;;;;;5042523;28;20025;-55
2023/06/24 01:47:26;;;;;;;17.77;15.75;;;17.20;99.90;;;;;;5034167;28;20082;-54
2023/06/24 01:50:13;;;;;;;16.80;15.02;;;17.30;99.90;;;;;;5033816;28;20026;-56
2023/06/24 01:53:04;;;;;;;22.25;15.95;;;17.20;99.90;;;;;;5019199;28;20105;-55
2023/06/24 01:55:50;;;;;;;24.38;17.17;;;17.20;99.90;;;;;;5013446;28;20061;-52
2023/06/24 01:58:37;;;;;;;21.45;16.13;;;17.00;99.90;;;;;;5014229;28;20532;-55
2023/06/24 02:01:24;;;;;;;23.73;17.25;;;17.00;99.90;;;;;;5014042;28;20026;-51
2023/06/24 02:04:12;;;;;;;24.02;16.20;;;16.90;99.90;;;;;;5013177;28;20553;-53
2023/06/24 02:07:01;;;;;;;17.95;15.88;;;16.90;99.90;;;;;;5013795;28;20084;-51
2023/06/24 02:09:49;;;;;;;22.67;17.50;;;16.90;99.90;;;;;;5013077;28;20036;-55
2023/06/24 02:12:35;;;;;;;17.95;15.85;;;16.80;99.90;;;;;;5013809;28;20029;-52
2023/06/24 02:15:22;;;;;;;22.58;15.55;;;16.90;99.90;;;;;;5013679;28;20026;-51
2023/06/24 02:18:09;;;;;;;19.00;15.48;;;16.80;99.90;;;;;;5012452;28;20029;-52
2023/06/24 02:20:56;;;;;;;19.83;16.42;;;16.80;99.90;;;;;;5034122;28;20041;-56
2023/06/24 02:23:43;;;;;;;23.25;16.35;;;16.80;99.90;;;;;;5033702;28;20033;-55
2023/06/24 02:26:29;;;;;;;24.27;17.73;;;16.70;99.90;;;;;;5031339;28;20107;-55
2023/06/24 02:29:16;;;;;;;19.88;15.82;;;16.70;99.90;;;;;;5032015;28;20034;-55
2023/06/24 02:32:02;;;;;;;22.15;15.57;;;16.70;99.90;;;;;;5031941;28;20402;-51
2023/06/24 02:34:48;;;;;;;22.70;15.68;;;16.60;99.90;;;;;;5031907;28;20026;-52
2023/06/24 02:37:34;;;;;;;19.10;15.27;;;16.60;99.90;;;;;;5032390;28;20053;-51
2023/06/24 02:40:21;;;;;;;18.40;15.52;;;16.60;99.90;;;;;;5031803;28;20506;-51
2023/06/24 02:43:06;;;;;;;19.05;15.30;;;16.50;99.90;;;;;;5033502;28;20033;-52
2023/06/24 02:45:53;;;;;;;22.17;15.93;;;16.50;99.90;;;;;;5032252;28;20116;-51
2023/06/24 02:48:41;;;;;;;19.85;16.33;;;16.50;99.90;;;;;;5011437;28;20406;-54
2023/06/24 02:51:27;;;;;;;25.50;15.63;;;16.40;99.90;;;;;;5011931;28;20116;-52
2023/06/24 02:54:14;;;;;;;20.67;15.18;;;16.50;99.90;;;;;;5012337;28;20042;-52
2023/06/24 02:57:00;;;;;;;18.92;15.63;;;16.40;99.90;;;;;;5013648;28;20386;-50
2023/06/24 02:59:47;;;;;;;19.83;15.45;;;16.40;99.90;;;;;;5031278;28;20034;-51
2023/06/24 03:02:34;;;;;;;16.88;14.57;;;16.40;99.90;;;;;;5031459;28;20477;-49
2023/06/24 03:05:22;;;;;;;25.83;15.63;;;16.40;99.90;;;;;;5031967;28;20032;-52
2023/06/24 03:08:08;;;;;;;25.58;17.02;;;16.30;99.90;;;;;;5032320;28;20414;-51
2023/06/24 03:10:56;;;;;;;20.13;15.80;;;16.30;99.90;;;;;;5035571;28;20025;-55
2023/06/24 03:13:42;;;;;;;21.45;15.45;;;16.30;99.90;;;;;;5029140;28;20025;-52
2023/06/24 03:16:29;;;;;;;19.77;15.10;;;16.30;99.90;;;;;;5016021;28;20022;-53
2023/06/24 03:19:15;;;;;;;21.02;16.20;;;16.20;99.90;;;;;;5017013;28;20042;-49
2023/06/24 03:22:03;;;;;;;21.23;16.98;;;16.20;99.90;;;;;;5012542;28;20384;-53
2023/06/24 03:24:49;;;;;;;22.52;16.85;;;16.20;99.90;;;;;;5012135;28;20029;-51
2023/06/24 03:27:36;;;;;;;19.83;16.23;;;16.10;99.90;;;;;;5019009;28;20034;-51
2023/06/24 03:30:22;;;;;;;21.58;16.17;;;16.10;99.90;;;;;;5037576;28;20025;-49
2023/06/24 03:33:08;;;;;;;18.45;15.55;;;16.10;99.90;;;;;;5035013;28;20029;-48
2023/06/24 03:35:54;;;;;;;19.02;16.55;;;16.20;99.90;;;;;;5034240;28;20065;-51
2023/06/24 03:38:41;;;;;;;23.23;15.50;;;16.20;99.90;;;;;;5034151;28;20037;-51
2023/06/24 03:41:27;;;;;;;25.08;16.65;;;16.20;99.90;;;;;;5015986;28;20026;-53
2023/06/24 03:44:13;;;;;;;25.40;18.02;;;16.20;99.90;;;;;;5001883;28;20033;-50
2023/06/24 03:46:59;;;;;;;21.02;16.63;;;16.20;99.90;;;;;;5015984;28;20029;-51
2023/06/24 03:49:45;;;;;;;27.88;17.42;;;16.20;99.90;;;;;;5016504;28;20034;-52
2023/06/24 03:52:31;;;;;;;20.33;16.05;;;16.30;99.90;;;;;;5016392;28;20037;-53
2023/06/24 03:55:17;;;;;;;27.58;17.50;;;16.40;99.90;;;;;;5016786;28;20026;-51
2023/06/24 03:58:03;;;;;;;23.25;16.70;;;16.20;99.90;;;;;;5016461;28;20026;-54
2023/06/24 04:00:49;;;;;;;25.35;16.17;;;16.30;99.90;;;;;;5017043;28;20057;-52
2023/06/24 04:03:35;;;;;;;26.02;17.52;;;16.30;99.90;;;;;;5016483;28;20506;-54
2023/06/24 04:06:21;;;;;;;29.30;16.83;;;16.20;99.90;;;;;;5016584;28;20022;-55
2023/06/24 04:09:09;;;;;;;25.98;17.48;;;16.20;99.90;;;;;;5017164;28;20034;-57
2023/06/24 04:11:55;;;;;;;19.88;16.05;;;16.20;99.90;;;;;;5022779;28;20050;-52
2023/06/24 04:14:41;;;;;;;25.67;16.73;;;16.30;99.90;;;;;;5037083;28;20056;-54
2023/06/24 04:17:27;;;;;;;27.48;17.63;;;16.20;99.90;;;;;;5044257;28;20029;-53
2023/06/24 04:20:13;;;;;;;22.23;16.80;;;16.40;99.90;;;;;;5042366;28;20057;-52
2023/06/24 04:23:00;;;;;;;26.42;18.23;;;16.30;99.90;;;;;;5037489;28;20034;-51
2023/06/24 04:25:46;;;;;;;23.58;16.45;;;16.20;99.90;;;;;;5037272;28;20030;-54
2023/06/24 04:28:32;;;;;;;19.88;16.33;;;16.20;99.90;;;;;;5034275;28;20160;-51
2023/06/24 04:31:18;;;;;;;23.75;16.23;;;16.30;99.90;;;;;;5035225;28;20029;-50
2023/06/24 04:34:03;;;;;;;21.95;15.77;;;16.30;99.90;;;;;;5034365;28;20034;-50
2023/06/24 04:36:49;;;;;;;17.50;15.15;;;16.30;99.90;;;;;;5033902;28;20029;-50
2023/06/24 04:39:35;;;;;;;20.77;16.98;;;16.40;99.90;;;;;;5033952;28;20095;-50
2023/06/24 04:42:22;;;;;;;21.75;15.60;;;16.40;99.90;;;;;;5041771;28;20017;-53
2023/06/24 04:45:09;;;;;;;19.80;15.98;;;16.40;99.90;;;;;;5024051;28;20030;-51
2023/06/24 04:47:54;;;;;;;19.10;15.27;;;16.50;99.90;;;;;;5017978;28;20021;-50
2023/06/24 04:50:40;;;;;;;21.42;16.55;;;16.50;99.90;;;;;;5015520;28;20033;-50
2023/06/24 04:53:26;;;;;;;21.77;16.55;;;16.60;99.90;;;;;;5015827;28;20026;-49
2023/06/24 04:56:12;;;;;;;17.65;14.43;;;16.60;99.90;;;;;;5014419;28;20105;-50
2023/06/24 04:58:58;;;;;;;19.58;15.35;;;16.60;99.90;;;;;;5016129;28;20395;-49
2023/06/24 05:01:44;;;;;;;22.98;14.85;;;16.60;99.90;;;;;;5028109;28;20558;-54
2023/06/24 05:04:30;;;;;;;20.90;14.98;;;16.60;99.90;;;;;;5033762;28;20042;-54
2023/06/24 05:07:16;;;;;;;18.55;14.70;;;16.60;99.90;;;;;;5034133;28;20398;-53
2023/06/24 05:10:02;;;;;;;20.98;14.43;;;16.70;99.90;;;;;;5033858;28;20030;-53
2023/06/24 05:12:48;;;;;;;18.48;13.88;;;16.80;99.90;;;;;;5034020;28;20498;-51
2023/06/24 05:15:34;;;;;;;17.85;13.15;;;16.80;99.90;;;;;;5022457;28;20037;-53
2023/06/24 05:18:20;;;;;;;22.10;14.63;;;16.70;99.90;;;;;;5013907;28;20070;-53
2023/06/24 05:21:06;;;;;;;17.35;14.60;;;16.70;99.90;;;;;;5016869;28;20033;-54
2023/06/24 05:23:52;;;;;;;20.15;14.80;;;16.90;99.90;;;;;;5019770;28;20496;-53
2023/06/24 05:26:37;;;;;;;17.17;14.32;;;16.90;99.90;;;;;;5018782;28;20145;-52
2023/06/24 05:29:23;;;;;;;19.08;13.75;;;17.00;99.90;;;;;;5027662;28;20029;-50
2023/06/24 05:32:09;;;;;;;16.98;15.23;;;17.10;99.90;;;;;;5032164;28;20120;-52
2023/06/24 05:34:55;;;;;;;20.10;14.25;;;17.20;99.90;;;;;;5031947;28;20028;-50
2023/06/24 05:37:41;;;;;;;15.98;13.32;;;17.10;99.90;;;;;;5032535;28;20486;-48
2023/06/24 05:40:27;;;;;;;19.15;14.32;;;17.20;99.90;;;;;;5032856;28;20502;-49
2023/06/24 05:43:13;;;;;;;17.77;13.95;;;17.30;99.90;;;;;;5018975;28;20037;-51
2023/06/24 05:46:00;;;;;;;17.40;12.90;;;17.30;99.90;;;;;;5014162;28;20026;-52
2023/06/24 05:48:46;;;;;;;21.77;14.43;;;17.30;99.90;;;;;;5025612;28;20026;-52
2023/06/24 05:51:32;;;;;;;16.92;13.52;;;17.40;99.90;;;;;;5028015;28;20105;-52
2023/06/24 05:54:18;;;;;;;14.98;13.38;;;17.50;99.90;;;;;;5025146;28;20043;-54
2023/06/24 05:57:07;;;;;;;18.95;13.25;;;17.50;99.90;;;;;;5034178;28;20032;-51
2023/06/24 05:59:53;;;;;;;17.13;13.43;;;17.50;99.90;;;;;;5033011;28;20084;-52
2023/06/24 06:02:39;;;;;;;15.15;12.88;;;17.60;99.90;;;;;;5033866;28;20026;-52
2023/06/24 06:05:25;;;;;;;17.70;12.88;;;17.70;99.90;;;;;;5032427;28;20100;-50
2023/06/24 06:08:11;;;;;;;19.73;13.68;;;17.80;99.90;;;;;;5032656;28;20350;-52
2023/06/24 06:10:57;;;;;;;14.45;12.98;;;17.80;99.90;;;;;;5033936;28;20037;-50
2023/06/24 06:13:43;;;;;;;18.38;12.70;;;17.90;99.90;;;;;;5033930;28;20460;-52
2023/06/24 06:16:29;;;;;;;20.25;14.75;;;17.90;99.90;;;;;;5036228;28;20033;-52
2023/06/24 06:19:15;;;;;;;17.00;13.10;;;18.00;99.90;;;;;;5020093;28;20101;-54
2023/06/24 06:22:00;;;;;;;20.73;14.35;;;17.90;99.90;;;;;;5026109;28;20026;-55
2023/06/24 06:24:46;;;;;;;14.90;12.82;;;17.90;99.90;;;;;;5041773;28;20025;-55
2023/06/24 06:27:33;;;;;;;16.00;14.27;;;17.90;99.90;;;;;;5040756;28;20068;-54
2023/06/24 06:30:19;;;;;;;18.15;14.18;;;17.80;99.90;;;;;;5032342;28;20032;-49
2023/06/24 06:33:05;;;;;;;17.63;13.50;;;17.80;99.90;;;;;;5031969;28;20034;-50
2023/06/24 06:35:51;;;;;;;16.15;13.52;;;17.90;99.90;;;;;;5028344;28;20045;-51
2023/06/24 06:38:37;;;;;;;15.75;12.52;;;18.30;99.90;;;;;;5014156;28;20064;-52
2023/06/24 06:41:25;;;;;;;18.90;14.25;;;18.20;99.90;;;;;;5026268;28;20022;-52
2023/06/24 06:44:11;;;;;;;17.10;14.90;;;18.20;99.90;;;;;;5013396;28;20029;-51
2023/06/24 06:46:57;;;;;;;16.95;13.18;;;18.40;99.90;;;;;;5013475;28;20113;-50
2023/06/24 06:49:43;;;;;;;16.50;13.52;;;18.30;99.90;;;;;;5014128;28;20388;-51
2023/06/24 06:52:29;;;;;;;18.27;12.95;;;18.40;99.90;;;;;;5014525;28;20129;-51
2023/06/24 06:55:15;;;;;;;16.95;13.77;;;18.50;99.90;;;;;;5012961;28;20030;-52
2023/06/24 06:58:01;;;;;;;17.35;13.63;;;18.70;99.90;;;;;;5013554;28;20502;-50
2023/06/24 07:00:47;;;;;;;15.10;13.50;;;19.00;99.90;;;;;;5016778;28;20044;-50
2023/06/24 07:03:33;;;;;;;16.25;13.05;;;19.00;99.90;;;;;;5012400;28;20466;-52
2023/06/24 07:06:19;;;;;;;15.32;13.65;;;19.10;99.90;;;;;;5013245;28;20060;-51
2023/06/24 07:09:05;;;;;;;13.90;12.50;;;19.20;99.90;;;;;;5012514;28;20029;-50
2023/06/24 07:11:51;;;;;;;14.77;12.52;;;19.20;99.90;;;;;;5014353;28;20092;-54
2023/06/24 07:14:37;;;;;;;16.40;13.55;;;19.20;99.90;;;;;;5030388;28;20107;-53
2023/06/24 07:17:23;;;;;;;12.80;11.57;;;19.00;99.90;;;;;;5031633;28;20099;-49
2023/06/24 07:20:09;;;;;;;14.30;12.07;;;19.00;99.90;;;;;;5033149;28;20108;-49
2023/06/24 07:22:55;;;;;;;15.50;12.30;;;18.90;99.90;;;;;;5032117;28;20030;-51
2023/06/24 07:25:41;;;;;;;17.23;12.25;;;18.80;99.90;;;;;;5020028;28;20646;-52
2023/06/24 07:28:27;;;;;;;14.02;11.88;;;19.00;99.90;;;;;;5012488;28;20041;-51
2023/06/24 07:31:13;;;;;;;14.07;11.90;;;19.10;99.90;;;;;;5013942;28;20030;-51
2023/06/24 07:33:59;;;;;;;11.95;10.75;;;19.30;99.90;;;;;;5031633;28;20528;-51
2023/06/24 07:36:45;;;;;;;12.60;11.00;;;19.40;99.90;;;;;;5031624;28;20030;-50
2023/06/24 07:39:31;;;;;;;13.23;11.65;;;19.30;99.90;;;;;;5031120;28;20087;-51
2023/06/24 07:42:18;;;;;;;14.10;11.10;;;19.40;99.90;;;;;;5018384;28;20113;-54
2023/06/24 07:45:05;;;;;;;12.25;10.85;;;19.60;99.90;;;;;;5022418;28;20030;-53
2023/06/24 07:47:51;;;;;;;12.02;10.82;;;19.70;99.90;;;;;;5014338;28;20088;-51
2023/06/24 07:50:39;;;;;;;12.05;10.70;;;19.60;99.90;;;;;;5013801;28;20101;-50
2023/06/24 07:53:25;;;;;;;14.40;11.43;;;19.50;99.90;;;;;;5030012;28;20036;-51
2023/06/24 07:56:10;;;;;;;11.55;10.35;;;19.30;99.90;;;;;;5031572;28;20044;-52
2023/06/24 07:58:56;;;;;;;11.05;9.90;;;19.30;99.90;;;;;;5031158;28;20026;-53
2023/06/24 08:01:42;;;;;;;11.50;10.30;;;19.40;99.90;;;;;;5027781;28;20056;-50
2023/06/24 08:04:28;;;;;;;11.40;10.15;;;19.60;99.90;;;;;;5020982;28;20033;-52
2023/06/24 08:07:15;;;;;;;11.63;10.30;;;19.70;99.90;;;;;;5031158;28;20060;-52
2023/06/24 08:10:01;;;;;;;10.45;9.13;;;19.80;99.90;;;;;;5015519;28;20037;-53
2023/06/24 08:12:47;;;;;;;10.68;9.27;;;20.00;99.90;;;;;;5013127;28;20168;-53
2023/06/24 08:15:33;;;;;;;13.43;9.40;;;20.20;99.90;;;;;;5016348;28;20026;-53
2023/06/24 08:18:19;;;;;;;10.32;8.73;;;20.20;99.90;;;;;;5031726;28;20528;-53
2023/06/24 08:21:05;;;;;;;12.43;9.25;;;20.40;99.90;;;;;;5031659;28;20038;-54
2023/06/24 08:23:51;;;;;;;9.68;8.63;;;20.40;99.90;;;;;;5023164;28;20518;-50
2023/06/24 08:26:37;;;;;;;11.00;9.18;;;20.40;99.90;;;;;;5024402;28;20045;-50
2023/06/24 08:29:23;;;;;;;11.10;9.85;;;20.40;99.90;;;;;;5026479;28;20038;-52
2023/06/24 08:32:09;;;;;;;10.27;9.23;;;20.50;99.90;;;;;;5031683;28;20108;-53
2023/06/24 08:34:55;;;;;;;9.23;8.27;;;20.50;99.90;;;;;;5030563;28;20030;-49
2023/06/24 08:37:40;;;;;;;9.80;8.32;;;20.40;99.90;;;;;;5016259;28;20034;-53
2023/06/24 08:40:28;;;;;;;12.63;9.02;;;20.20;99.90;;;;;;5031933;28;20367;-52
2023/06/24 08:43:14;;;;;;;10.30;8.45;;;20.10;99.90;;;;;;5025948;28;20096;-50
2023/06/24 08:46:00;;;;;;;8.98;8.07;;;20.20;99.90;;;;;;5024952;28;20033;-54
2023/06/24 08:48:48;;;;;;;8.90;8.00;;;20.20;99.90;;;;;;5021393;28;20044;-53
2023/06/24 08:51:40;;;;;;;8.25;7.38;;;20.50;99.90;;;;;;5027379;28;20065;-52
2023/06/24 08:54:26;;;;;;;9.00;8.10;;;20.70;99.90;;;;;;5015446;28;20454;-51
2023/06/24 08:57:15;;;;;;;8.48;7.68;;;21.10;99.50;;;;;;5032196;28;20025;-53
2023/06/24 09:00:03;;;;;;;10.23;8.32;;;21.00;99.60;;;;;;5028666;28;20038;-51
2023/06/24 09:02:49;;;;;;;9.52;8.00;;;20.80;99.90;;;;;;5016333;28;20601;-51
2023/06/24 09:05:35;;;;;;;8.20;7.30;;;20.70;99.90;;;;;;5015891;28;20109;-52
2023/06/24 09:08:22;;;;;;;10.20;7.68;;;20.70;99.90;;;;;;5016066;28;20053;-55
2023/06/24 09:11:08;;;;;;;7.97;7.18;;;20.80;98.90;;;;;;5016479;28;20490;-50
2023/06/24 09:13:58;;;;;;;10.52;7.60;;;20.90;98.60;;;;;;5015038;28;20045;-50
2023/06/24 09:17:11;;;;;;;8.32;7.15;;;21.00;99.20;;;;;;5025983;28;20046;-51
2023/06/24 09:20:04;;;;;;;11.02;8.10;;;21.30;98.40;;;;;;5032800;28;20034;-51
2023/06/24 09:22:50;;;;;;;10.20;7.75;;;21.10;98.80;;;;;;5027394;28;20030;-52
2023/06/24 09:25:36;;;;;;;9.63;7.28;;;20.80;99.30;;;;;;5030720;28;20567;-53
2023/06/24 09:28:26;;;;;;;8.40;7.50;;;20.70;98.40;;;;;;5013835;28;20029;-52
2023/06/24 09:31:12;;;;;;;8.60;7.45;;;20.70;98.20;;;;;;5023191;28;20109;-51
2023/06/24 09:33:58;;;;;;;7.80;7.00;;;20.80;97.90;;;;;;5023226;28;20030;-52
2023/06/24 09:36:45;;;;;;;9.02;7.50;;;21.10;97.70;;;;;;5042642;28;20130;-54
2023/06/24 09:39:39;;;;;;;9.57;6.82;;;21.00;98.50;;;;;;5034383;28;20646;-56
2023/06/24 09:42:26;;;;;;;8.75;7.55;;;21.10;98.10;;;;;;5034815;28;20557;-53
2023/06/24 09:45:12;;;;;;;8.15;7.32;;;21.20;97.70;;;;;;5030233;28;20033;-53
2023/06/24 09:47:58;;;;;;;9.52;7.43;;;21.20;98.80;;;;;;5032395;28;20040;-55
2023/06/24 09:50:45;;;;;;;7.53;6.80;;;21.30;98.70;;;;;;5032441;28;20061;-52
2023/06/24 09:53:33;;;;;;;8.70;7.32;;;21.50;97.50;;;;;;5031804;28;20036;-57
2023/06/24 09:56:19;;;;;;;9.20;7.25;;;21.70;97.30;;;;;;5013957;28;20555;-51
2023/06/24 09:59:06;;;;;;;8.68;7.00;;;21.80;97.00;;;;;;5015856;28;20092;-52
2023/06/24 10:01:54;;;;;;;7.82;6.57;;;22.00;96.20;;;;;;5033301;28;20104;-49
2023/06/24 10:04:40;;;;;;;8.77;6.78;;;22.10;95.50;;;;;;5035239;28;20030;-54
2023/06/24 10:07:28;;;;;;;9.02;7.03;;;22.20;95.50;;;;;;5032149;28;20108;-54
2023/06/24 10:10:14;;;;;;;9.18;6.20;;;22.30;95.80;;;;;;5034220;28;20033;-52
2023/06/24 10:13:00;;;;;;;8.40;6.57;;;22.20;95.20;;;;;;5035599;28;20029;-53
2023/06/24 10:15:46;;;;;;;7.40;6.68;;;21.90;95.50;;;;;;5019058;28;20033;-53
2023/06/24 10:18:36;;;;;;;8.55;7.20;;;21.90;95.20;;;;;;5015702;28;20034;-50
2023/06/24 10:21:42;;;;;;;7.82;6.78;;;21.80;95.60;;;;;;5033719;28;20029;-50
2023/06/24 10:24:34;;;;;;;8.57;7.70;;;21.80;95.80;;;;;;5026789;28;20034;-55
2023/06/24 10:27:22;;;;;;;8.57;6.90;;;22.20;95.50;;;;;;5025333;28;20041;-52
2023/06/24 10:30:08;;;;;;;7.82;7.03;;;22.40;94.90;;;;;;5032276;28;20040;-53
2023/06/24 10:32:55;;;;;;;8.18;6.80;;;22.50;94.60;;;;;;5033856;28;20097;-56
2023/06/24 10:35:43;;;;;;;8.07;6.13;;;22.60;94.10;;;;;;5032994;28;20057;-56
2023/06/24 10:38:29;;;;;;;6.75;5.78;;;22.40;93.60;;;;;;5028655;28;20029;-58
2023/06/24 10:41:18;;;;;;;8.05;6.63;;;22.50;92.80;;;;;;5013510;28;20467;-62
2023/06/24 10:44:15;;;;;;;8.15;6.35;;;22.50;93.10;;;;;;5023728;28;20029;-53
2023/06/24 10:47:02;;;;;;;6.65;6.05;;;22.70;92.40;;;;;;5032981;28;20079;-57
2023/06/24 10:49:48;;;;;;;10.63;6.57;;;22.80;92.70;;;;;;5028081;28;20057;-57
2023/06/24 10:52:38;;;;;;;8.18;6.97;;;22.80;92.50;;;;;;5014179;28;20032;-56
2023/06/24 10:55:28;;;;;;;7.90;6.53;;;22.80;92.90;;;;;;5022404;28;20040;-57
2023/06/24 10:58:15;;;;;;;8.38;6.75;;;22.80;92.80;;;;;;5020112;28;20061;-56
2023/06/24 11:01:09;;;;;;;6.93;5.80;;;22.80;91.50;;;;;;5014616;28;20506;-61
2023/06/24 11:03:55;;;;;;;6.55;5.60;;;22.60;90.40;;;;;;5017084;28;20037;-57
2023/06/24 11:06:41;;;;;;;6.40;5.80;;;22.70;90.00;;;;;;5017728;28;20042;-59
2023/06/24 11:09:27;;;;;;;6.30;5.70;;;22.80;90.20;;;;;;5012564;28;20121;-55
2023/06/24 11:12:13;;;;;;;7.72;5.88;;;22.70;91.00;;;;;;5028308;28;20442;-61
2023/06/24 11:15:07;;;;;;;7.60;6.03;;;22.70;91.30;;;;;;5033331;28;20055;-56
2023/06/24 11:17:53;;;;;;;7.70;6.40;;;22.80;91.50;;;;;;5033480;28;20033;-57
2023/06/24 11:20:39;;;;;;;8.82;6.20;;;23.00;91.30;;;;;;5036850;28;20030;-51
2023/06/24 11:23:25;;;;;;;8.40;6.50;;;23.20;90.00;;;;;;5034452;28;20069;-55
2023/06/24 11:26:11;;;;;;;8.32;6.78;;;23.30;91.10;;;;;;5032662;28;20083;-53
2023/06/24 11:28:57;;;;;;;8.35;6.55;;;23.30;92.00;;;;;;5016153;28;20517;-53
2023/06/24 11:31:45;;;;;;;8.07;6.53;;;23.50;92.20;;;;;;5028464;28;20116;-55
2023/06/24 11:34:31;;;;;;;7.65;6.18;;;23.60;90.70;;;;;;5027336;28;20083;-56
2023/06/24 11:37:18;;;;;;;7.57;6.30;;;23.50;89.10;;;;;;5031912;28;20104;-52
2023/06/24 11:40:06;;;;;;;8.27;6.80;;;23.50;90.20;;;;;;5014239;28;20030;-53
2023/06/24 11:42:52;;;;;;;7.57;6.88;;;23.50;90.40;;;;;;5016417;28;20109;-54
2023/06/24 11:45:38;;;;;;;7.15;6.45;;;23.60;90.80;;;;;;5013407;28;20510;-51
2023/06/24 11:48:31;;;;;;;8.27;6.53;;;23.50;90.80;;;;;;5014728;28;20030;-51
2023/06/24 11:51:17;;;;;;;8.00;6.32;;;23.30;90.30;;;;;;5017510;28;20030;-52
2023/06/24 11:54:05;;;;;;;7.50;6.70;;;23.40;90.10;;;;;;5021712;28;20052;-52
2023/06/24 11:56:52;;;;;;;8.00;7.20;;;23.40;90.40;;;;;;5036213;28;20411;-53
2023/06/24 11:59:38;;;;;;;9.77;6.55;;;23.50;90.50;;;;;;5037965;28;20055;-53
2023/06/24 12:02:24;;;;;;;8.13;6.90;;;23.60;90.10;;;;;;5031140;28;20045;-53
2023/06/24 12:05:10;;;;;;;7.68;6.68;;;23.70;90.50;;;;;;5031941;28;20410;-50
2023/06/24 12:08:02;;;;;;;7.55;6.85;;;23.80;90.50;;;;;;5018230;28;20022;-53
2023/06/24 12:10:48;;;;;;;7.65;6.25;;;23.80;89.70;;;;;;5016328;28;20414;-53
2023/06/24 12:13:34;;;;;;;8.02;6.80;;;23.90;90.20;;;;;;5015428;28;20034;-53
2023/06/24 12:16:20;;;;;;;7.20;6.50;;;24.00;89.60;;;;;;5027126;28;20040;-50
2023/06/24 12:19:07;;;;;;;9.18;7.43;;;24.00;90.40;;;;;;5024124;28;20033;-50
2023/06/24 12:21:53;;;;;;;6.32;5.72;;;24.30;90.10;;;;;;5018658;28;20121;-53
2023/06/24 12:24:39;;;;;;;10.43;6.50;;;24.40;86.70;;;;;;5031634;28;20474;-52
2023/06/24 12:27:25;;;;;;;9.57;6.70;;;24.60;88.20;;;;;;5018425;28;20025;-53
2023/06/24 12:30:12;;;;;;;7.10;6.35;;;24.40;88.10;;;;;;5016755;28;20045;-50
2023/06/24 12:32:58;;;;;;;6.63;6.00;;;24.60;88.30;;;;;;5019819;28;20124;-50
2023/06/24 12:35:44;;;;;;;8.00;6.50;;;24.60;88.60;;;;;;5017876;28;20037;-50
2023/06/24 12:38:29;;;;;;;9.23;6.97;;;24.70;89.30;;;;;;5026972;28;20030;-54
2023/06/24 12:41:15;;;;;;;7.40;6.05;;;24.80;89.20;;;;;;5022073;28;20128;-51
2023/06/24 12:44:02;;;;;;;7.80;5.65;;;25.00;86.30;;;;;;5024868;28;20042;-54
2023/06/24 12:46:48;;;;;;;7.70;6.00;;;25.20;85.80;;;;;;5023310;28;20042;-56
2023/06/24 12:49:34;;;;;;;6.40;5.72;;;25.30;86.50;;;;;;5026487;28;20079;-52
2023/06/24 12:52:20;;;;;;;7.70;6.18;;;25.40;85.90;;;;;;5026662;28;20034;-54
2023/06/24 12:55:07;;;;;;;6.25;5.63;;;25.30;85.40;;;;;;5015003;28;20026;-54
2023/06/24 12:57:52;;;;;;;7.75;5.70;;;25.10;84.80;;;;;;5015286;28;20022;-51
2023/06/24 13:00:38;;;;;;;6.45;5.70;;;25.10;85.80;;;;;;5015752;28;20022;-50
2023/06/24 13:03:24;;;;;;;8.73;5.93;;;25.20;85.10;;;;;;5017423;28;20026;-51
2023/06/24 13:06:10;;;;;;;7.70;6.25;;;25.20;85.00;;;;;;5026019;28;20040;-54
2023/06/24 13:08:56;;;;;;;7.05;6.35;;;25.20;85.30;;;;;;5017681;28;20564;-53
2023/06/24 13:11:42;;;;;;;6.57;5.88;;;25.40;85.30;;;;;;5034271;28;20041;-51
2023/06/24 13:14:28;;;;;;;6.93;5.50;;;25.60;84.00;;;;;;5038141;28;20025;-54
2023/06/24 13:17:15;;;;;;;6.47;5.88;;;25.40;84.00;;;;;;5039501;28;20029;-55
2023/06/24 13:20:03;;;;;;;5.78;5.28;;;25.30;83.80;;;;;;5040321;28;20052;-52
2023/06/24 13:22:49;;;;;;;6.65;5.60;;;25.60;83.00;;;;;;5035482;28;20036;-53
2023/06/24 13:25:35;;;;;;;6.13;5.32;;;25.60;84.20;;;;;;5034405;28;20159;-52
2023/06/24 13:28:21;;;;;;;6.00;5.40;;;25.50;83.20;;;;;;5029005;28;20030;-54
2023/06/24 13:31:07;;;;;;;6.53;5.75;;;25.50;82.50;;;;;;5014860;28;20033;-54
2023/06/24 13:33:53;;;;;;;10.63;6.53;;;25.40;83.10;;;;;;5025292;28;20422;-53
2023/06/24 13:36:40;;;;;;;6.05;5.10;;;25.70;83.60;;;;;;5022468;28;20026;-54
2023/06/24 13:39:27;;;;;;;7.22;5.43;;;26.20;83.40;;;;;;5026740;28;20165;-51
2023/06/24 13:42:13;;;;;;;8.23;5.68;;;26.40;82.90;;;;;;5033133;28;20168;-52
2023/06/24 13:44:59;;;;;;;8.20;5.65;;;26.60;83.50;;;;;;5031172;28;20111;-56
2023/06/24 13:47:45;;;;;;;12.57;6.03;;;26.90;82.20;;;;;;5031238;28;20429;-55
2023/06/24 13:50:31;;;;;;;5.93;5.32;;;26.90;81.20;;;;;;5034825;28;20037;-53
2023/06/24 13:53:17;;;;;;;7.28;5.75;;;26.80;81.50;;;;;;5033609;28;20030;-54
2023/06/24 13:56:03;;;;;;;7.22;5.70;;;26.80;81.40;;;;;;5033690;28;20547;-51
2023/06/24 13:58:50;;;;;;;6.15;5.55;;;26.90;81.80;;;;;;5034984;28;20026;-51
2023/06/24 14:01:36;;;;;;;6.25;5.65;;;26.70;81.00;;;;;;5035033;28;20018;-52
2023/06/24 14:04:22;;;;;;;6.13;5.50;;;26.70;81.20;;;;;;5036161;28;20041;-53
2023/06/24 14:07:08;;;;;;;6.03;5.43;;;27.00;81.00;;;;;;5035402;28;20029;-53
2023/06/24 14:09:55;;;;;;;6.63;5.13;;;27.00;80.60;;;;;;5034066;28;20560;-51
2023/06/24 14:12:42;;;;;;;7.22;5.82;;;26.80;81.50;;;;;;5034313;28;20048;-54
2023/06/24 14:15:28;;;;;;;6.95;5.97;;;26.70;81.90;;;;;;5035018;28;20049;-55
2023/06/24 14:18:14;;;;;;;7.10;6.18;;;26.70;81.80;;;;;;5046641;28;20101;-51